Time;durP1;ratioP1;P1;durP2;ratioP2;P2;SDS_P1;SDS_P2;PMS_P1;PMS_P2;Temp;Humidity;BMP_temperature;BMP_pressure;BME280_temperature;BME280_humidity;BME280_pressure;Samples;Min_cycle;Max_cycle;Signal;HPM_P1;HPM_P2
2023/04/21 00:00:23;;;;;;;31.07;17.37;;;;;;;;;;7716544;23;20047;-83
2023/04/21 00:03:24;;;;;;;37.00;18.33;;;;;;;;;;7715127;23;20445;-82
2023/04/21 00:06:27;;;;;;;36.58;17.15;;;;;;;;;;7714772;23;19993;-80
2023/04/21 00:09:27;;;;;;;34.50;16.23;;;;;;;;;;7712930;23;20028;-83
2023/04/21 00:12:27;;;;;;;37.10;19.67;;;;;;;;;;7714341;23;20108;-82
2023/04/21 00:15:28;;;;;;;46.92;20.02;;;;;;;;;;7714127;23;19999;-84
2023/04/21 00:18:28;;;;;;;40.27;19.83;;;;;;;;;;7714174;23;19992;-83
2023/04/21 00:21:28;;;;;;;40.53;18.07;;;;;;;;;;7714775;23;20007;-84
2023/04/21 00:24:28;;;;;;;35.70;19.23;;;;;;;;;;7713385;23;20001;-75
2023/04/21 00:27:29;;;;;;;37.00;19.45;;;;;;;;;;7712457;23;20055;-75
2023/04/21 00:30:29;;;;;;;45.38;19.77;;;;;;;;;;7711826;23;19996;-76
2023/04/21 00:33:29;;;;;;;35.30;16.57;;;;;;;;;;7711888;23;19997;-76
2023/04/21 00:36:31;;;;;;;39.25;18.38;;;;;;;;;;7712566;23;20321;-76
2023/04/21 00:39:32;;;;;;;32.95;17.42;;;;;;;;;;7712278;23;20001;-76
2023/04/21 00:42:32;;;;;;;34.53;16.02;;;;;;;;;;7711824;23;20000;-76
2023/04/21 00:45:33;;;;;;;28.47;13.10;;;;;;;;;;7712546;23;19993;-76
2023/04/21 00:48:33;;;;;;;38.07;17.97;;;;;;;;;;7712996;23;20443;-76
2023/04/21 00:51:36;;;;;;;38.63;20.03;;;;;;;;;;7712115;23;20463;-75
2023/04/21 00:54:36;;;;;;;34.17;17.88;;;;;;;;;;7711601;23;20039;-75
2023/04/21 00:57:38;;;;;;;22.07;11.27;;;;;;;;;;7685692;23;20421;-76
2023/04/21 01:00:38;;;;;;;25.60;14.20;;;;;;;;;;7685800;23;20003;-75
2023/04/21 01:03:38;;;;;;;25.30;15.53;;;;;;;;;;7711967;23;20050;-75
2023/04/21 01:06:40;;;;;;;29.80;13.97;;;;;;;;;;7711840;23;20487;-75
2023/04/21 01:09:40;;;;;;;22.00;10.48;;;;;;;;;;7711682;23;20067;-74
2023/04/21 01:12:41;;;;;;;22.33;13.07;;;;;;;;;;7711745;23;20000;-75
2023/04/21 01:15:42;;;;;;;26.40;15.00;;;;;;;;;;7684748;23;20405;-74
2023/04/21 01:18:46;;;;;;;22.52;12.77;;;;;;;;;;7711810;23;20337;-75
2023/04/21 01:21:46;;;;;;;29.05;14.70;;;;;;;;;;7711305;23;19996;-74
2023/04/21 01:24:47;;;;;;;24.97;15.53;;;;;;;;;;7689757;23;20039;-82
2023/04/21 01:27:47;;;;;;;29.73;16.73;;;;;;;;;;7716911;23;19996;-84
2023/04/21 01:30:48;;;;;;;32.70;17.97;;;;;;;;;;7690332;23;20005;-82
2023/04/21 01:33:49;;;;;;;27.70;14.27;;;;;;;;;;7715418;23;19996;-82
2023/04/21 01:36:49;;;;;;;26.73;13.63;;;;;;;;;;7715168;23;20322;-81
2023/04/21 01:39:51;;;;;;;33.90;15.20;;;;;;;;;;7714163;23;20003;-77
2023/04/21 01:42:52;;;;;;;33.17;18.13;;;;;;;;;;7714603;23;20000;-82
2023/04/21 01:45:53;;;;;;;32.22;18.23;;;;;;;;;;7688790;23;19997;-81
2023/04/21 01:48:53;;;;;;;27.93;14.93;;;;;;;;;;7715581;23;20491;-82
2023/04/21 01:51:53;;;;;;;31.80;16.77;;;;;;;;;;7714379;23;20004;-82
2023/04/21 01:54:54;;;;;;;27.17;15.67;;;;;;;;;;7715402;23;20333;-83
2023/04/21 01:57:56;;;;;;;28.17;14.50;;;;;;;;;;7715979;23;19989;-83
2023/04/21 02:00:56;;;;;;;28.20;15.27;;;;;;;;;;7714176;23;20502;-80
2023/04/21 02:03:56;;;;;;;38.33;17.95;;;;;;;;;;7716228;23;20491;-83
2023/04/21 02:06:57;;;;;;;33.03;17.43;;;;;;;;;;7716782;23;20004;-83
2023/04/21 02:09:57;;;;;;;34.77;19.23;;;;;;;;;;7715378;23;20323;-83
2023/04/21 02:12:57;;;;;;;33.23;17.23;;;;;;;;;;7690182;23;20002;-84
2023/04/21 02:15:58;;;;;;;42.65;20.75;;;;;;;;;;7688891;23;20001;-83
2023/04/21 02:19:02;;;;;;;36.47;21.23;;;;;;;;;;7715623;23;19989;-82
2023/04/21 02:22:05;;;;;;;32.13;18.90;;;;;;;;;;7717432;23;20004;-84
2023/04/21 02:25:06;;;;;;;39.58;19.42;;;;;;;;;;7699575;23;20012;-82
2023/04/21 02:28:06;;;;;;;42.87;19.93;;;;;;;;;;7726669;23;19996;-84
2023/04/21 02:31:06;;;;;;;35.05;17.58;;;;;;;;;;7724775;23;20001;-84
2023/04/21 02:34:06;;;;;;;34.43;16.50;;;;;;;;;;7717547;23;19992;-76
2023/04/21 02:37:06;;;;;;;38.20;17.10;;;;;;;;;;7710963;23;20406;-75
2023/04/21 02:40:08;;;;;;;44.10;18.67;;;;;;;;;;7711182;23;20134;-75
2023/04/21 02:43:08;;;;;;;32.22;18.00;;;;;;;;;;7712235;23;19992;-81
2023/04/21 02:46:08;;;;;;;37.17;19.97;;;;;;;;;;7715017;23;20000;-80
2023/04/21 02:49:09;;;;;;;34.78;17.98;;;;;;;;;;7714858;23;20733;-81
2023/04/21 02:52:09;;;;;;;34.50;18.50;;;;;;;;;;7715756;23;20015;-83
2023/04/21 02:55:09;;;;;;;35.10;18.43;;;;;;;;;;7716368;23;20004;-83
2023/04/21 02:58:09;;;;;;;36.03;17.33;;;;;;;;;;7714778;23;20001;-82
2023/04/21 03:01:10;;;;;;;53.43;25.50;;;;;;;;;;7716741;23;20386;-83
2023/04/21 03:04:11;;;;;;;43.67;22.05;;;;;;;;;;7715352;23;20480;-84
2023/04/21 03:07:15;;;;;;;45.67;23.30;;;;;;;;;;7714852;23;20000;-84
2023/04/21 03:10:15;;;;;;;44.47;22.90;;;;;;;;;;7716256;23;20012;-82
2023/04/21 03:13:16;;;;;;;49.57;26.77;;;;;;;;;;7713865;23;20075;-83
2023/04/21 03:16:18;;;;;;;57.45;29.02;;;;;;;;;;7687068;23;19997;-82
2023/04/21 03:19:18;;;;;;;59.67;25.67;;;;;;;;;;7715251;23;19993;-82
2023/04/21 03:22:18;;;;;;;45.90;25.30;;;;;;;;;;7688540;23;20000;-82
2023/04/21 03:25:19;;;;;;;51.33;25.63;;;;;;;;;;7688463;23;20961;-81
2023/04/21 03:28:19;;;;;;;48.37;25.07;;;;;;;;;;7716215;23;20007;-82
2023/04/21 03:31:19;;;;;;;46.73;23.97;;;;;;;;;;7716431;23;20005;-81
2023/04/21 03:34:19;;;;;;;53.45;26.27;;;;;;;;;;7740796;23;20005;-79
2023/04/21 03:37:20;;;;;;;41.08;25.77;;;;;;;;;;7742069;23;20325;-80
2023/04/21 03:40:20;;;;;;;48.63;26.37;;;;;;;;;;7725923;23;20001;-82
2023/04/21 03:43:21;;;;;;;47.57;24.77;;;;;;;;;;7714707;23;20008;-75
2023/04/21 03:46:21;;;;;;;47.97;24.27;;;;;;;;;;7712856;23;19993;-75
2023/04/21 03:49:22;;;;;;;52.43;26.17;;;;;;;;;;7712143;23;19993;-75
2023/04/21 03:52:22;;;;;;;44.87;23.50;;;;;;;;;;7712797;23;20043;-75
2023/04/21 03:55:22;;;;;;;47.57;22.90;;;;;;;;;;7712308;23;19992;-74
2023/04/21 03:58:22;;;;;;;42.33;23.83;;;;;;;;;;7712245;23;20024;-74
2023/04/21 04:01:23;;;;;;;48.97;23.80;;;;;;;;;;7712098;23;20025;-74
2023/04/21 04:04:23;;;;;;;48.77;25.87;;;;;;;;;;7711842;23;20004;-74
2023/04/21 04:07:23;;;;;;;38.80;22.37;;;;;;;;;;7712215;23;20051;-74
2023/04/21 04:10:24;;;;;;;38.87;21.30;;;;;;;;;;7712189;23;20009;-74
2023/04/21 04:13:25;;;;;;;49.63;27.08;;;;;;;;;;7711997;23;20413;-74
2023/04/21 04:16:27;;;;;;;43.47;23.73;;;;;;;;;;7711764;23;19993;-74
2023/04/21 04:19:31;;;;;;;44.50;26.98;;;;;;;;;;7712266;23;20000;-74
2023/04/21 04:22:32;;;;;;;47.60;27.77;;;;;;;;;;7711722;23;20333;-75
2023/04/21 04:25:32;;;;;;;49.83;26.02;;;;;;;;;;7684860;23;20004;-74
2023/04/21 04:28:33;;;;;;;42.00;22.23;;;;;;;;;;7711923;23;20429;-75
2023/04/21 04:31:33;;;;;;;45.70;24.93;;;;;;;;;;7711938;23;20075;-74
2023/04/21 04:34:36;;;;;;;48.00;26.33;;;;;;;;;;7711705;23;20003;-74
2023/04/21 04:37:36;;;;;;;49.05;26.00;;;;;;;;;;7710593;23;19993;-74
2023/04/21 04:40:37;;;;;;;38.10;21.83;;;;;;;;;;7711656;23;20372;-74
2023/04/21 04:43:41;;;;;;;45.33;25.47;;;;;;;;;;7711156;23;20599;-74
2023/04/21 04:46:42;;;;;;;42.75;25.15;;;;;;;;;;7711416;23;19996;-74
2023/04/21 04:49:42;;;;;;;40.13;25.27;;;;;;;;;;7711319;23;20004;-74
2023/04/21 04:52:45;;;;;;;57.00;25.60;;;;;;;;;;7711115;23;20099;-74
2023/04/21 04:55:46;;;;;;;48.15;27.42;;;;;;;;;;7711756;23;19989;-74
2023/04/21 04:58:46;;;;;;;44.37;26.97;;;;;;;;;;7711299;23;20426;-74
2023/04/21 05:01:47;;;;;;;37.07;24.33;;;;;;;;;;7710840;23;20019;-74
2023/04/21 05:04:48;;;;;;;23.65;16.08;;;;;;;;;;7713113;23;19993;-83
2023/04/21 05:07:48;;;;;;;24.00;14.60;;;;;;;;;;7660333;23;20282;-84
2023/04/21 05:10:50;;;;;;;26.60;17.07;;;;;;;;;;7711347;23;20421;-83
2023/04/21 05:13:50;;;;;;;25.00;13.95;;;;;;;;;;7712505;23;20024;-84
2023/04/21 05:16:50;;;;;;;26.27;16.00;;;;;;;;;;7712238;23;20481;-84
2023/04/21 05:19:50;;;;;;;29.80;17.67;;;;;;;;;;7711587;23;20076;-84
2023/04/21 05:22:52;;;;;;;36.85;22.65;;;;;;;;;;7711759;23;20000;-84
2023/04/21 05:25:52;;;;;;;33.60;21.75;;;;;;;;;;7684422;23;20116;-84
2023/04/21 05:28:55;;;;;;;36.57;19.77;;;;;;;;;;7712431;23;20003;-84
2023/04/21 05:31:56;;;;;;;28.55;16.83;;;;;;;;;;7712068;23;19997;-84
2023/04/21 05:34:56;;;;;;;21.30;14.17;;;;;;;;;;7711971;23;20000;-84
2023/04/21 05:37:56;;;;;;;21.03;13.27;;;;;;;;;;7712370;23;20380;-84
2023/04/21 05:40:56;;;;;;;25.50;15.57;;;;;;;;;;7711505;23;20421;-85
2023/04/21 05:43:56;;;;;;;28.30;15.77;;;;;;;;;;7712048;23;20003;-84
2023/04/21 05:46:57;;;;;;;33.67;16.63;;;;;;;;;;7711234;23;20027;-85
2023/04/21 05:49:57;;;;;;;20.17;12.40;;;;;;;;;;7711877;23;20000;-84
2023/04/21 05:52:58;;;;;;;23.85;12.68;;;;;;;;;;7713295;23;20000;-86
2023/04/21 05:55:58;;;;;;;20.07;11.73;;;;;;;;;;7711019;23;20016;-84
2023/04/21 05:58:58;;;;;;;25.17;13.80;;;;;;;;;;7708141;23;20004;-86
2023/04/21 06:01:58;;;;;;;26.10;13.53;;;;;;;;;;7710465;23;20019;-85
2023/04/21 06:04:58;;;;;;;21.50;12.50;;;;;;;;;;7711345;23;20008;-85
2023/04/21 06:07:59;;;;;;;19.00;11.67;;;;;;;;;;7685863;23;20418;-85
2023/04/21 06:10:59;;;;;;;20.90;11.47;;;;;;;;;;7710556;23;20075;-85
2023/04/21 06:14:00;;;;;;;23.25;13.50;;;;;;;;;;7710912;23;20310;-85
2023/04/21 06:17:00;;;;;;;;;;;;;;;;;;7712515;23;20099;-80
2023/04/21 06:20:00;;;;;;;21.50;12.20;;;;;;;;;;7710883;23;20390;-83
2023/04/21 06:23:01;;;;;;;22.50;11.05;;;;;;;;;;7711320;23;20003;-81
2023/04/21 06:26:03;;;;;;;20.10;10.87;;;;;;;;;;7711348;23;20384;-84
2023/04/21 06:29:03;;;;;;;21.48;11.88;;;;;;;;;;7711771;23;19996;-83
2023/04/21 06:32:04;;;;;;;20.87;11.23;;;;;;;;;;7711126;23;20007;-84
2023/04/21 06:35:04;;;;;;;15.87;9.80;;;;;;;;;;7710542;23;19988;-84
2023/04/21 06:38:07;;;;;;;19.67;9.73;;;;;;;;;;7710428;23;20416;-83
2023/04/21 06:41:07;;;;;;;19.10;9.50;;;;;;;;;;7683726;23;20096;-84
2023/04/21 06:44:07;;;;;;;;;;;;;;;;;;7711482;23;19997;-83
2023/04/21 06:47:08;;;;;;;18.57;8.43;;;;;;;;;;7711267;23;19900;-82
2023/04/21 06:50:08;;;;;;;;;;;;;;;;;;7684532;23;19997;-84
2023/04/21 06:53:09;;;;;;;22.25;9.23;;;;;;;;;;7713129;23;19950;-84
2023/04/21 06:56:10;;;;;;;18.73;9.60;;;;;;;;;;7713495;23;19993;-80
2023/04/21 06:59:10;;;;;;;;;;;;;;;;;;7713188;23;20433;-83
2023/04/21 07:02:10;;;;;;;16.30;7.30;;;;;;;;;;7713685;23;19919;-82
2023/04/21 07:05:10;;;;;;;;;;;;;;;;;;7710989;23;20008;-82
2023/04/21 07:08:10;;;;;;;18.42;8.57;;;;;;;;;;7713931;23;20264;-81
2023/04/21 07:11:11;;;;;;;15.57;7.82;;;;;;;;;;7712984;23;20005;-82
2023/04/21 07:14:11;;;;;;;;;;;;;;;;;;7713252;23;20440;-75
2023/04/21 07:17:12;;;;;;;17.52;7.50;;;;;;;;;;7712792;23;19982;-75
2023/04/21 07:20:12;;;;;;;11.65;6.70;;;;;;;;;;7712287;23;19992;-74
2023/04/21 07:23:12;;;;;;;11.40;6.93;;;;;;;;;;7712607;23;20015;-81
2023/04/21 07:26:13;;;;;;;14.77;6.60;;;;;;;;;;7712961;23;20004;-81
2023/04/21 07:29:13;;;;;;;13.93;7.33;;;;;;;;;;7685422;23;20082;-82
2023/04/21 07:32:13;;;;;;;17.50;7.73;;;;;;;;;;7712952;23;20015;-82
2023/04/21 07:35:13;;;;;;;18.05;7.20;;;;;;;;;;7712808;23;20050;-83
2023/04/21 07:38:13;;;;;;;11.50;6.57;;;;;;;;;;7685354;23;19989;-82
2023/04/21 07:41:15;;;;;;;11.20;5.07;;;;;;;;;;7712445;23;19997;-82
2023/04/21 07:44:15;;;;;;;8.98;5.45;;;;;;;;;;7713274;23;20001;-82
2023/04/21 07:47:15;;;;;;;12.90;6.03;;;;;;;;;;7712856;23;20067;-82
2023/04/21 07:50:16;;;;;;;12.63;5.37;;;;;;;;;;7713091;23;19997;-83
2023/04/21 07:53:16;;;;;;;10.93;5.50;;;;;;;;;;7712711;23;20308;-79
2023/04/21 07:56:17;;;;;;;13.93;5.32;;;;;;;;;;7712491;23;20707;-80
2023/04/21 07:59:19;;;;;;;11.48;4.63;;;;;;;;;;7713439;23;20003;-81
2023/04/21 08:02:19;;;;;;;8.23;5.15;;;;;;;;;;7714093;23;20067;-84
2023/04/21 08:05:20;;;;;;;13.80;5.40;;;;;;;;;;7730918;23;19993;-78
2023/04/21 08:08:20;;;;;;;8.02;4.72;;;;;;;;;;7741877;23;19992;-82
2023/04/21 08:11:21;;;;;;;10.82;4.60;;;;;;;;;;7710417;23;19996;-82
2023/04/21 08:14:21;;;;;;;;;;;;;;;;;;7734384;23;19993;-82
2023/04/21 08:17:21;;;;;;;12.55;6.30;;;;;;;;;;7684462;23;19907;-81
2023/04/21 08:20:21;;;;;;;10.10;5.03;;;;;;;;;;7711137;23;19997;-81
2023/04/21 08:23:22;;;;;;;9.83;6.10;;;;;;;;;;7659996;23;20448;-81
2023/04/21 08:26:22;;;;;;;12.27;5.55;;;;;;;;;;7713119;23;19988;-81
2023/04/21 08:29:22;;;;;;;;;;;;;;;;;;7715552;23;20456;-82
2023/04/21 08:32:23;;;;;;;10.30;5.65;;;;;;;;;;7735013;23;19943;-82
2023/04/21 08:35:23;;;;;;;;;;;;;;;;;;7738966;23;19997;-81
2023/04/21 08:38:23;;;;;;;11.48;5.78;;;;;;;;;;7740930;23;19894;-80
2023/04/21 08:41:23;;;;;;;;;;;;;;;;;;7736989;23;20042;-82
2023/04/21 08:44:23;;;;;;;12.45;5.50;;;;;;;;;;7712185;23;19926;-83
2023/04/21 08:47:24;;;;;;;8.03;5.53;;;;;;;;;;7712730;23;20024;-83
2023/04/21 08:50:26;;;;;;;9.43;6.43;;;;;;;;;;7711171;23;20417;-83
2023/04/21 08:53:26;;;;;;;8.75;4.85;;;;;;;;;;7683423;23;19992;-81
2023/04/21 08:56:26;;;;;;;8.93;5.83;;;;;;;;;;7710976;23;20003;-82
2023/04/21 08:59:27;;;;;;;8.43;5.07;;;;;;;;;;7685229;23;20055;-80
2023/04/21 09:02:27;;;;;;;15.00;6.05;;;;;;;;;;7712185;23;20062;-81
2023/04/21 09:05:28;;;;;;;10.48;6.82;;;;;;;;;;7684066;23;20456;-82
2023/04/21 09:08:29;;;;;;;9.25;5.28;;;;;;;;;;7712543;23;20015;-81
2023/04/21 09:11:31;;;;;;;10.82;5.93;;;;;;;;;;7711841;23;20001;-82
2023/04/21 09:14:32;;;;;;;8.25;5.45;;;;;;;;;;7712252;23;20004;-80
2023/04/21 09:17:32;;;;;;;7.80;5.75;;;;;;;;;;7711804;23;20504;-81
2023/04/21 09:20:32;;;;;;;9.63;5.57;;;;;;;;;;7712866;23;20016;-81
2023/04/21 09:23:54;;;;;;;9.60;5.50;;;;;;;;;;7712489;23;19988;-83
2023/04/21 09:26:54;;;;;;;;;;;;;;;;;;7712565;23;20016;-82
2023/04/21 09:30:01;;;;;;;8.33;5.63;;;;;;;;;;7712586;23;19900;-82
2023/04/21 09:33:01;;;;;;;8.38;5.13;;;;;;;;;;7685498;23;20016;-82
2023/04/21 09:36:04;;;;;;;8.52;5.57;;;;;;;;;;7711461;23;20311;-82
2023/04/21 09:39:06;;;;;;;9.63;5.93;;;;;;;;;;7684747;23;20376;-83
2023/04/21 09:42:09;;;;;;;7.43;4.97;;;;;;;;;;7712059;23;20050;-82
2023/04/21 09:45:09;;;;;;;11.68;5.90;;;;;;;;;;7711190;23;19997;-81
2023/04/21 09:48:11;;;;;;;8.93;5.40;;;;;;;;;;7685492;23;20004;-82
2023/04/21 09:51:12;;;;;;;8.65;5.53;;;;;;;;;;7711654;23;20032;-83
2023/04/21 09:54:16;;;;;;;9.30;5.57;;;;;;;;;;7710909;23;20063;-80
2023/04/21 09:57:23;;;;;;;9.43;6.00;;;;;;;;;;7711071;23;20067;-81
2023/04/21 10:00:27;;;;;;;14.38;6.57;;;;;;;;;;7711730;23;20047;-81
2023/04/21 10:03:28;;;;;;;11.93;6.38;;;;;;;;;;7710693;23;20024;-80
2023/04/21 10:06:29;;;;;;;9.30;5.32;;;;;;;;;;7710797;23;20461;-81
2023/04/21 10:09:33;;;;;;;8.53;5.33;;;;;;;;;;7710956;23;19989;-80
2023/04/21 10:12:34;;;;;;;9.65;5.50;;;;;;;;;;7711571;23;20000;-80
2023/04/21 10:15:39;;;;;;;12.35;6.30;;;;;;;;;;7711261;23;20021;-80
2023/04/21 10:18:45;;;;;;;9.05;5.60;;;;;;;;;;7710745;23;19988;-79
2023/04/21 10:21:48;;;;;;;9.57;6.00;;;;;;;;;;7711086;23;19992;-80
2023/04/21 10:24:48;;;;;;;9.55;6.13;;;;;;;;;;7710900;23;20075;-81
2023/04/21 10:27:48;;;;;;;9.37;5.67;;;;;;;;;;7711244;23;20031;-80
2023/04/21 10:30:50;;;;;;;9.53;6.23;;;;;;;;;;7710574;23;20051;-82
2023/04/21 10:33:50;;;;;;;;;;;;;;;;;;7708528;23;20023;-78
2023/04/21 10:37:07;;;;;;;6.93;4.78;;;;;;;;;;7683614;23;19900;-80
2023/04/21 10:40:26;;;;;;;11.35;6.30;;;;;;;;;;7709765;23;20051;-81
2023/04/21 10:43:43;;;;;;;8.80;5.55;;;;;;;;;;7709951;23;20376;-75
2023/04/21 10:46:47;;;;;;;11.43;5.13;;;;;;;;;;7709534;23;20023;-75
2023/04/21 10:49:48;;;;;;;9.10;5.63;;;;;;;;;;7708939;23;20476;-76
2023/04/21 10:52:53;;;;;;;7.68;5.00;;;;;;;;;;7709307;23;20007;-80
2023/04/21 10:55:55;;;;;;;8.82;5.55;;;;;;;;;;7709764;23;20000;-80
2023/04/21 10:58:55;;;;;;;8.13;4.93;;;;;;;;;;7710435;23;19992;-81
2023/04/21 11:01:56;;;;;;;12.32;5.30;;;;;;;;;;7709542;23;20020;-82
2023/04/21 11:04:56;;;;;;;8.30;5.10;;;;;;;;;;7709484;23;19997;-83
2023/04/21 11:08:16;;;;;;;8.57;5.13;;;;;;;;;;7710155;23;19997;-82
2023/04/21 11:11:20;;;;;;;7.22;3.72;;;;;;;;;;7708943;23;20001;-79
2023/04/21 11:14:21;;;;;;;8.73;4.20;;;;;;;;;;7710722;23;20031;-82
2023/04/21 11:17:22;;;;;;;9.10;4.73;;;;;;;;;;7683995;23;20421;-81
2023/04/21 11:20:24;;;;;;;7.32;3.88;;;;;;;;;;7709907;23;20515;-80
2023/04/21 11:23:24;;;;;;;8.38;4.47;;;;;;;;;;7711078;23;20414;-81
2023/04/21 11:26:31;;;;;;;7.60;4.50;;;;;;;;;;7683318;23;20004;-81
2023/04/21 11:29:32;;;;;;;7.28;4.55;;;;;;;;;;7710464;23;19992;-81
2023/04/21 11:32:32;;;;;;;7.75;4.32;;;;;;;;;;7683592;23;20013;-83
2023/04/21 11:35:34;;;;;;;8.43;4.10;;;;;;;;;;7707839;23;19992;-80
2023/04/21 11:38:38;;;;;;;8.93;4.65;;;;;;;;;;7712052;23;20008;-80
2023/04/21 11:41:40;;;;;;;8.90;4.43;;;;;;;;;;7710275;23;20024;-81
2023/04/21 11:44:41;;;;;;;10.82;5.50;;;;;;;;;;7712829;23;19996;-82
2023/04/21 11:47:41;;;;;;;11.82;5.32;;;;;;;;;;7712344;23;20017;-82
2023/04/21 11:50:50;;;;;;;12.70;5.03;;;;;;;;;;7713822;23;20083;-82
2023/04/21 11:53:50;;;;;;;9.48;5.25;;;;;;;;;;7712843;23;20003;-82
2023/04/21 11:56:51;;;;;;;7.63;4.50;;;;;;;;;;7713803;23;20425;-82
2023/04/21 11:59:51;;;;;;;10.47;4.97;;;;;;;;;;7712557;23;20019;-81
2023/04/21 12:02:56;;;;;;;9.70;5.70;;;;;;;;;;7660351;23;20028;-82
2023/04/21 12:05:57;;;;;;;7.45;5.22;;;;;;;;;;7712739;23;20413;-82
2023/04/21 12:09:01;;;;;;;8.83;4.97;;;;;;;;;;7712198;23;20011;-82
2023/04/21 12:12:03;;;;;;;12.85;5.53;;;;;;;;;;7713025;23;20373;-82
2023/04/21 12:15:08;;;;;;;7.05;4.30;;;;;;;;;;7711762;23;20448;-81
2023/04/21 12:18:12;;;;;;;6.72;4.88;;;;;;;;;;7711623;23;20004;-81
2023/04/21 12:21:13;;;;;;;9.27;4.75;;;;;;;;;;7711001;23;20000;-81
2023/04/21 12:24:13;;;;;;;8.15;4.22;;;;;;;;;;7712609;23;20007;-80
2023/04/21 12:27:14;;;;;;;9.13;4.22;;;;;;;;;;7711748;23;19988;-82
2023/04/21 12:30:14;;;;;;;5.33;3.90;;;;;;;;;;7712201;23;20055;-81
2023/04/21 12:33:15;;;;;;;9.45;5.25;;;;;;;;;;7711762;23;20054;-82
2023/04/21 12:36:15;;;;;;;9.73;4.43;;;;;;;;;;7711589;23;19992;-82
2023/04/21 12:39:17;;;;;;;8.68;5.05;;;;;;;;;;7712057;23;19996;-82
2023/04/21 12:42:17;;;;;;;11.98;5.38;;;;;;;;;;7711706;23;20000;-80
2023/04/21 12:45:18;;;;;;;8.82;5.20;;;;;;;;;;7711933;23;20069;-82
2023/04/21 12:48:19;;;;;;;8.97;4.93;;;;;;;;;;7711656;23;20106;-83
2023/04/21 12:51:19;;;;;;;6.93;4.15;;;;;;;;;;7712015;23;20004;-81
2023/04/21 12:54:20;;;;;;;8.18;4.05;;;;;;;;;;7712643;23;20054;-82
2023/04/21 12:57:20;;;;;;;9.77;4.67;;;;;;;;;;7711609;23;20306;-82
2023/04/21 13:00:20;;;;;;;10.00;4.17;;;;;;;;;;7710880;23;20437;-83
2023/04/21 13:03:21;;;;;;;6.13;3.67;;;;;;;;;;7711582;23;20016;-76
2023/04/21 13:06:21;;;;;;;6.87;3.80;;;;;;;;;;7710723;23;19999;-76
2023/04/21 13:09:21;;;;;;;7.70;3.80;;;;;;;;;;7710642;23;19996;-76
2023/04/21 13:12:21;;;;;;;;;;;;;;;;;;7711628;23;20005;-75
2023/04/21 13:15:21;;;;;;;10.95;3.97;;;;;;;;;;7710846;23;19990;-76
2023/04/21 13:18:22;;;;;;;8.02;3.55;;;;;;;;;;7710619;23;19997;-75
2023/04/21 13:21:22;;;;;;;8.70;3.83;;;;;;;;;;7710678;23;19996;-75
2023/04/21 13:24:22;;;;;;;9.03;4.63;;;;;;;;;;7710905;23;19997;-75
2023/04/21 13:27:22;;;;;;;7.73;4.27;;;;;;;;;;7710106;23;19996;-75
2023/04/21 13:30:23;;;;;;;9.00;4.82;;;;;;;;;;7684312;23;20011;-75
2023/04/21 13:33:23;;;;;;;10.77;4.63;;;;;;;;;;7683979;23;20031;-76
2023/04/21 13:36:24;;;;;;;9.93;3.93;;;;;;;;;;7683641;23;20001;-76
2023/04/21 13:39:25;;;;;;;9.70;3.70;;;;;;;;;;7683042;23;19993;-77
2023/04/21 13:42:27;;;;;;;5.55;3.50;;;;;;;;;;7709456;23;19993;-77
2023/04/21 13:45:27;;;;;;;5.40;3.28;;;;;;;;;;7710045;23;20134;-76
2023/04/21 13:48:28;;;;;;;;;;;;;;;;;;7711365;23;19992;-76
2023/04/21 13:51:29;;;;;;;6.70;3.28;;;;;;;;;;7709879;23;19935;-76
2023/04/21 13:54:29;;;;;;;6.65;3.78;;;;;;;;;;7711443;23;20385;-76
2023/04/21 13:57:29;;;;;;;;;;;;;;;;;;7684219;23;19996;-76
2023/04/21 14:00:29;;;;;;;5.07;3.20;;;;;;;;;;7710318;23;19954;-76
2023/04/21 14:03:29;;;;;;;;;;;;;;;;;;7710241;23;20012;-74
2023/04/21 14:06:30;;;;;;;7.88;3.03;;;;;;;;;;7709753;23;19926;-74
2023/04/21 14:09:30;;;;;;;7.07;3.10;;;;;;;;;;7710225;23;19989;-76
2023/04/21 14:12:31;;;;;;;6.23;3.80;;;;;;;;;;7712302;23;20422;-81
2023/04/21 14:15:31;;;;;;;8.88;3.75;;;;;;;;;;7734357;23;19997;-81
2023/04/21 14:18:32;;;;;;;8.67;3.80;;;;;;;;;;7711303;23;20269;-80
2023/04/21 14:21:32;;;;;;;7.78;3.70;;;;;;;;;;7710834;23;20001;-81
2023/04/21 14:24:32;;;;;;;11.57;5.97;;;;;;;;;;7728256;23;20413;-82
2023/04/21 14:27:33;;;;;;;8.40;4.60;;;;;;;;;;7711129;23;20001;-81
2023/04/21 14:30:36;;;;;;;6.17;3.80;;;;;;;;;;7709613;23;20015;-83
2023/04/21 14:33:36;;;;;;;7.00;4.05;;;;;;;;;;7710333;23;20017;-82
2023/04/21 14:36:37;;;;;;;10.07;4.63;;;;;;;;;;7710197;23;20084;-83
2023/04/21 14:39:38;;;;;;;8.17;4.20;;;;;;;;;;7711422;23;19989;-81
2023/04/21 14:42:40;;;;;;;5.22;3.65;;;;;;;;;;7710744;23;20016;-82
2023/04/21 14:45:41;;;;;;;8.95;4.13;;;;;;;;;;7711164;23;20469;-81
2023/04/21 14:48:42;;;;;;;;;;;;;;;;;;7710860;23;20079;-82
2023/04/21 14:51:44;;;;;;;6.93;4.37;;;;;;;;;;7684695;23;19994;-82
2023/04/21 14:54:45;;;;;;;7.75;4.13;;;;;;;;;;7710990;23;20035;-81
2023/04/21 14:57:45;;;;;;;6.57;3.40;;;;;;;;;;7710880;23;19993;-81
2023/04/21 15:00:46;;;;;;;5.78;3.45;;;;;;;;;;7709955;23;20043;-82
2023/04/21 15:03:46;;;;;;;6.80;3.97;;;;;;;;;;7711703;23;20292;-81
2023/04/21 15:06:46;;;;;;;6.57;3.67;;;;;;;;;;7712188;23;20024;-82
2023/04/21 15:09:47;;;;;;;7.23;3.20;;;;;;;;;;7710743;23;20008;-82
2023/04/21 15:12:47;;;;;;;9.45;3.17;;;;;;;;;;7712307;23;20440;-82
2023/04/21 15:15:50;;;;;;;7.27;3.53;;;;;;;;;;7713039;23;19992;-81
2023/04/21 15:18:51;;;;;;;7.47;3.70;;;;;;;;;;7686590;23;20001;-81
2023/04/21 15:21:51;;;;;;;6.88;3.60;;;;;;;;;;7712764;23;20001;-83
2023/04/21 15:24:51;;;;;;;6.40;3.57;;;;;;;;;;7712990;23;20008;-82
2023/04/21 15:27:52;;;;;;;6.77;3.77;;;;;;;;;;7712809;23;19996;-82
2023/04/21 15:30:52;;;;;;;7.03;3.20;;;;;;;;;;7686509;23;20008;-82
2023/04/21 15:33:52;;;;;;;5.00;3.20;;;;;;;;;;7710839;23;20337;-82
2023/04/21 15:36:53;;;;;;;9.83;3.87;;;;;;;;;;7711339;23;20425;-82
2023/04/21 15:39:53;;;;;;;9.40;3.83;;;;;;;;;;7710934;23;19993;-83
2023/04/21 15:42:53;;;;;;;7.73;3.70;;;;;;;;;;7711698;23;20465;-82
2023/04/21 15:45:54;;;;;;;8.70;4.07;;;;;;;;;;7684639;23;20000;-81
2023/04/21 15:48:54;;;;;;;8.80;4.03;;;;;;;;;;7711173;23;19989;-83
2023/04/21 15:51:55;;;;;;;8.77;3.67;;;;;;;;;;7710019;23;20001;-82
2023/04/21 15:54:55;;;;;;;7.43;4.00;;;;;;;;;;7711550;23;19993;-82
2023/04/21 15:57:55;;;;;;;6.77;3.77;;;;;;;;;;7711885;23;19993;-83
2023/04/21 16:00:56;;;;;;;7.60;3.28;;;;;;;;;;7711209;23;20467;-82
2023/04/21 16:03:57;;;;;;;7.13;3.70;;;;;;;;;;7683603;23;20017;-83
2023/04/21 16:06:57;;;;;;;9.05;4.32;;;;;;;;;;7710306;23;20082;-83
2023/04/21 16:09:57;;;;;;;9.88;4.40;;;;;;;;;;7708122;23;20075;-82
2023/04/21 16:12:58;;;;;;;6.60;3.93;;;;;;;;;;7710443;23;20000;-83
2023/04/21 16:15:58;;;;;;;5.40;3.17;;;;;;;;;;7711596;23;19992;-84
2023/04/21 16:18:58;;;;;;;7.33;3.90;;;;;;;;;;7712060;23;19997;-82
2023/04/21 16:21:58;;;;;;;8.20;3.07;;;;;;;;;;7710840;23;20448;-82
2023/04/21 16:24:59;;;;;;;9.73;4.17;;;;;;;;;;7710343;23;20329;-82
2023/04/21 16:27:59;;;;;;;8.53;4.20;;;;;;;;;;7709803;23;19992;-82
2023/04/21 16:31:00;;;;;;;7.70;3.77;;;;;;;;;;7708638;23;20008;-81
2023/04/21 16:34:01;;;;;;;15.50;4.80;;;;;;;;;;7681112;23;19992;-82
2023/04/21 16:37:02;;;;;;;9.25;3.67;;;;;;;;;;7709120;23;20042;-79
2023/04/21 16:40:06;;;;;;;7.35;3.63;;;;;;;;;;7709482;23;20349;-82
2023/04/21 16:43:06;;;;;;;10.48;4.68;;;;;;;;;;7708882;23;20058;-80
2023/04/21 16:46:06;;;;;;;8.70;4.87;;;;;;;;;;7709720;23;19993;-82
2023/04/21 16:49:06;;;;;;;10.07;4.00;;;;;;;;;;7710230;23;20052;-81
2023/04/21 16:52:07;;;;;;;7.27;3.50;;;;;;;;;;7710389;23;20050;-81
2023/04/21 16:55:09;;;;;;;4.53;2.63;;;;;;;;;;7709734;23;20003;-81
2023/04/21 16:58:09;;;;;;;;;;;;;;;;;;7708768;23;20507;-80
2023/04/21 17:01:09;;;;;;;6.38;3.88;;;;;;;;;;7709241;23;19904;-81
2023/04/21 17:04:12;;;;;;;9.43;3.27;;;;;;;;;;7709870;23;20036;-82
2023/04/21 17:07:13;;;;;;;11.65;4.30;;;;;;;;;;7682681;23;20000;-82
2023/04/21 17:10:13;;;;;;;11.93;4.73;;;;;;;;;;7710531;23;20334;-81
2023/04/21 17:13:13;;;;;;;8.93;5.07;;;;;;;;;;7709790;23;20016;-80
2023/04/21 17:16:13;;;;;;;11.10;6.10;;;;;;;;;;7705945;23;20225;-81
2023/04/21 17:19:14;;;;;;;12.67;5.23;;;;;;;;;;7709021;23;20000;-81
2023/04/21 17:22:14;;;;;;;11.60;5.93;;;;;;;;;;7709175;23;20000;-82
2023/04/21 17:25:14;;;;;;;14.27;6.33;;;;;;;;;;7682599;23;20000;-82
2023/04/21 17:28:14;;;;;;;15.37;8.00;;;;;;;;;;7681901;23;20118;-82
2023/04/21 17:31:15;;;;;;;19.37;8.23;;;;;;;;;;7709121;23;20027;-81
2023/04/21 17:34:15;;;;;;;15.00;8.37;;;;;;;;;;7707314;23;20003;-82
2023/04/21 17:37:15;;;;;;;14.70;7.87;;;;;;;;;;7708618;23;19992;-82
2023/04/21 17:40:17;;;;;;;18.17;7.57;;;;;;;;;;7707745;23;20078;-81
2023/04/21 17:43:18;;;;;;;13.00;6.40;;;;;;;;;;7708658;23;19996;-80
2023/04/21 17:46:19;;;;;;;18.30;7.93;;;;;;;;;;7708666;23;20007;-82
2023/04/21 17:49:21;;;;;;;18.67;8.27;;;;;;;;;;7708108;23;20001;-81
2023/04/21 17:52:23;;;;;;;17.83;7.93;;;;;;;;;;7683344;23;20008;-80
2023/04/21 17:55:23;;;;;;;22.17;11.38;;;;;;;;;;7709827;23;20028;-82